createdAt,value
2018-02-13T00:00:51.647Z,87.98
2018-02-13T00:01:51.676Z,87.98
2018-02-13T00:02:51.687Z,87.98
2018-02-13T00:03:51.806Z,87.98
2018-02-13T00:04:51.722Z,88.07
2018-02-13T00:05:51.793Z,87.88
2018-02-13T00:06:51.772Z,88.07
2018-02-13T00:07:51.796Z,88.17
2018-02-13T00:08:51.801Z,88.21
2018-02-13T00:09:51.823Z,88.07
2018-02-13T00:10:51.834Z,88.21
2018-02-13T00:11:51.869Z,87.55
2018-02-13T00:12:51.871Z,87.84
2018-02-13T00:13:51.895Z,87.46
2018-02-13T00:14:51.915Z,87.46
2018-02-13T00:15:51.929Z,87.41
2018-02-13T00:16:51.975Z,87.70
2018-02-13T00:17:51.966Z,87.60
2018-02-13T00:18:51.995Z,88.26
2018-02-13T00:19:52.007Z,87.79
2018-02-13T00:20:52.026Z,88.55
2018-02-13T00:21:52.046Z,88.36
2018-02-13T00:22:52.070Z,88.55
2018-02-13T00:23:52.092Z,88.83
2018-02-13T00:24:52.099Z,88.45
2018-02-13T00:25:52.142Z,88.45
2018-02-13T00:26:52.140Z,88.55
2018-02-13T00:27:52.161Z,88.36
2018-02-13T00:28:52.190Z,88.36
2018-02-13T00:29:52.197Z,88.64
2018-02-13T00:30:52.213Z,88.74
2018-02-13T00:31:52.237Z,88.93
2018-02-13T00:32:52.250Z,89.12
2018-02-13T00:33:52.268Z,88.45
2018-02-13T00:34:52.300Z,88.17
2018-02-13T00:35:52.309Z,88.64
2018-02-13T00:36:52.335Z,88.55
2018-02-13T00:37:52.349Z,88.74
2018-02-13T00:38:52.373Z,88.64
2018-02-13T00:39:52.381Z,88.83
2018-02-13T00:40:52.426Z,88.45
2018-02-13T00:41:52.425Z,88.83
2018-02-13T00:42:52.442Z,89.69
2018-02-13T00:43:52.473Z,88.36
2018-02-13T00:44:52.479Z,88.45
2018-02-13T00:45:52.511Z,88.17
2018-02-13T00:46:52.520Z,88.74
2018-02-13T00:47:52.537Z,88.83
2018-02-13T00:48:52.568Z,88.93
2018-02-13T00:49:52.579Z,88.74
2018-02-13T00:50:52.588Z,88.45
2018-02-13T00:51:52.620Z,88.83
2018-02-13T00:52:52.638Z,89.50
2018-02-13T00:53:52.643Z,88.74
2018-02-13T00:54:52.670Z,89.31
2018-02-13T00:55:52.682Z,88.93
2018-02-13T00:56:52.696Z,89.31
2018-02-13T00:57:52.733Z,89.31
2018-02-13T00:58:52.737Z,89.02
2018-02-13T00:59:52.758Z,89.31
2018-02-13T01:00:52.795Z,89.21
2018-02-13T01:01:52.802Z,89.21
2018-02-13T01:02:52.808Z,89.40
2018-02-13T01:03:52.830Z,89.59
2018-02-13T01:04:52.853Z,89.69
2018-02-13T01:05:52.879Z,89.50
2018-02-13T01:06:52.884Z,89.21
2018-02-13T01:07:52.907Z,88.74
2018-02-13T01:08:52.925Z,89.12
2018-02-13T01:09:52.941Z,89.02
2018-02-13T01:10:52.963Z,89.31
2018-02-13T01:11:52.980Z,89.21
2018-02-13T01:12:53.004Z,89.31
2018-02-13T01:13:53.021Z,89.12
2018-02-13T01:14:53.036Z,89.50
2018-02-13T01:15:53.053Z,90.16
2018-02-13T01:16:53.076Z,89.69
2018-02-13T01:17:53.087Z,89.69
2018-02-13T01:18:53.106Z,90.34
2018-02-13T01:19:53.130Z,90.25
2018-02-13T01:20:53.165Z,89.87
2018-02-13T01:21:53.247Z,90.25
2018-02-13T01:22:53.189Z,89.69
2018-02-13T01:23:53.216Z,90.06
2018-02-13T01:24:53.217Z,90.16
2018-02-13T01:25:53.242Z,90.16
2018-02-13T01:26:53.257Z,90.16
2018-02-13T01:27:53.286Z,89.69
2018-02-13T01:28:53.295Z,89.59
2018-02-13T01:29:53.309Z,89.50
2018-02-13T01:30:53.348Z,89.31
2018-02-13T01:31:53.353Z,89.12
2018-02-13T01:32:53.369Z,89.31
2018-02-13T01:33:53.386Z,89.21
2018-02-13T01:34:53.419Z,89.40
2018-02-13T01:35:53.449Z,89.40
2018-02-13T01:36:53.454Z,89.31
2018-02-13T01:37:53.462Z,89.02
2018-02-13T01:38:53.481Z,88.64
2018-02-13T01:39:53.508Z,88.55
2018-02-13T01:40:53.513Z,88.93
2018-02-13T01:41:53.540Z,88.78
2018-02-13T01:42:53.554Z,88.17
2018-02-13T01:43:53.576Z,88.17
2018-02-13T01:44:53.593Z,88.55
2018-02-13T01:45:53.607Z,89.21
2018-02-13T01:46:53.633Z,89.02
2018-02-13T01:47:54.197Z,88.93
2018-02-13T01:48:53.673Z,89.12
2018-02-13T01:49:53.695Z,89.69
2018-02-13T01:50:53.699Z,89.59
2018-02-13T01:51:53.736Z,89.31
2018-02-13T01:52:53.739Z,89.40
2018-02-13T01:53:53.764Z,90.06
2018-02-13T01:54:53.775Z,89.59
2018-02-13T01:55:53.797Z,89.97
2018-02-13T01:56:53.814Z,89.69
2018-02-13T01:57:53.836Z,89.69
2018-02-13T01:58:53.878Z,89.40
2018-02-13T01:59:53.876Z,89.69
2018-02-13T02:00:53.997Z,90.06
2018-02-13T02:01:53.913Z,90.44
2018-02-13T02:02:53.944Z,90.63
2018-02-13T02:03:53.942Z,90.82
2018-02-13T02:04:53.966Z,91.39
2018-02-13T02:05:53.999Z,91.86
2018-02-13T02:06:54.001Z,91.39
2018-02-13T02:07:54.023Z,92.05
2018-02-13T02:08:54.037Z,92.43
2018-02-13T02:09:54.065Z,92.61
2018-02-13T02:10:54.074Z,93.18
2018-02-13T02:11:54.092Z,93.47
2018-02-13T02:12:54.109Z,94.42
2018-02-13T02:13:54.131Z,93.47
2018-02-13T02:14:54.149Z,94.23
2018-02-13T02:15:54.170Z,93.47
2018-02-13T02:16:54.187Z,93.47
2018-02-13T02:17:54.207Z,93.56
2018-02-13T02:18:54.231Z,93.37
2018-02-13T02:19:54.243Z,93.18
2018-02-13T02:20:54.268Z,93.47
2018-02-13T02:21:54.277Z,93.18
2018-02-13T02:22:54.304Z,93.37
2018-02-13T02:23:54.317Z,93.09
2018-02-13T02:24:54.337Z,94.51
2018-02-13T02:25:54.352Z,93.66
2018-02-13T02:26:54.377Z,93.28
2018-02-13T02:27:54.389Z,93.85
2018-02-13T02:28:54.442Z,93.47
2018-02-13T02:29:54.423Z,93.56
2018-02-13T02:30:54.448Z,93.37
2018-02-13T02:31:54.464Z,93.09
2018-02-13T02:32:54.494Z,93.28
2018-02-13T02:33:54.511Z,93.56
2018-02-13T02:34:54.522Z,92.80
2018-02-13T02:35:54.540Z,92.90
2018-02-13T02:36:54.555Z,92.43
2018-02-13T02:37:54.578Z,92.61
2018-02-13T02:38:54.594Z,92.05
2018-02-13T02:39:54.614Z,92.14
2018-02-13T02:40:54.654Z,92.14
2018-02-13T02:41:54.655Z,91.67
2018-02-13T02:42:54.671Z,91.96
2018-02-13T02:43:54.686Z,91.96
2018-02-13T02:44:54.706Z,91.77
2018-02-13T02:45:54.719Z,91.77
2018-02-13T02:46:54.763Z,91.48
2018-02-13T02:47:54.772Z,91.77
2018-02-13T02:48:54.784Z,91.77
2018-02-13T02:49:54.812Z,91.77
2018-02-13T02:50:54.819Z,91.48
2018-02-13T02:51:54.836Z,91.39
2018-02-13T02:52:54.857Z,91.96
2018-02-13T02:53:54.869Z,92.52
2018-02-13T02:54:54.891Z,92.43
2018-02-13T02:55:54.925Z,93.66
2018-02-13T02:56:54.934Z,93.18
2018-02-13T02:57:54.947Z,93.28
2018-02-13T02:58:54.976Z,94.32
2018-02-13T02:59:54.985Z,94.13
2018-02-13T03:00:55.025Z,93.85
2018-02-13T03:01:55.022Z,94.23
2018-02-13T03:02:55.041Z,93.66
2018-02-13T03:03:55.063Z,93.47
2018-02-13T03:04:55.093Z,93.66
2018-02-13T03:05:55.165Z,93.56
2018-02-13T03:06:55.110Z,93.66
2018-02-13T03:07:55.141Z,93.85
2018-02-13T03:08:55.148Z,93.66
2018-02-13T03:09:55.173Z,93.56
2018-02-13T03:10:55.196Z,93.75
2018-02-13T03:11:55.209Z,94.32
2018-02-13T03:12:55.221Z,93.56
2018-02-13T03:13:55.256Z,93.28
2018-02-13T03:14:55.259Z,93.37
2018-02-13T03:15:55.281Z,93.37
2018-02-13T03:16:55.308Z,93.56
2018-02-13T03:17:55.322Z,93.56
2018-02-13T03:18:55.342Z,93.56
2018-02-13T03:19:55.355Z,93.66
2018-02-13T03:20:55.405Z,93.56
2018-02-13T03:21:55.411Z,93.75
2018-02-13T03:22:55.415Z,93.47
2018-02-13T03:23:55.428Z,92.99
2018-02-13T03:24:55.452Z,92.99
2018-02-13T03:25:55.472Z,92.52
2018-02-13T03:26:55.496Z,92.33
2018-02-13T03:27:55.505Z,92.61
2018-02-13T03:28:55.521Z,92.80
2018-02-13T03:29:55.570Z,93.09
2018-02-13T03:30:55.558Z,92.90
2018-02-13T03:31:55.587Z,92.90
2018-02-13T03:32:55.597Z,93.56
2018-02-13T03:33:55.627Z,93.09
2018-02-13T03:34:55.634Z,92.90
2018-02-13T03:35:55.666Z,92.61
2018-02-13T03:36:55.676Z,92.33
2018-02-13T03:37:55.690Z,92.33
2018-02-13T03:38:55.715Z,92.05
2018-02-13T03:39:55.749Z,91.77
2018-02-13T03:40:55.746Z,91.48
2018-02-13T03:41:55.765Z,91.67
2018-02-13T03:42:55.789Z,91.67
2018-02-13T03:43:55.807Z,91.77
2018-02-13T03:44:55.898Z,91.48
2018-02-13T03:45:55.839Z,91.77
2018-02-13T03:46:55.868Z,91.96
2018-02-13T03:47:55.880Z,92.24
2018-02-13T03:48:55.903Z,92.24
2018-02-13T03:49:55.917Z,91.58
2018-02-13T03:50:55.934Z,91.29
2018-02-13T03:51:55.957Z,91.77
2018-02-13T03:52:55.969Z,91.58
2018-02-13T03:53:55.996Z,91.48
2018-02-13T03:54:56.006Z,91.01
2018-02-13T03:55:56.028Z,91.48
2018-02-13T03:56:56.047Z,90.72
2018-02-13T03:57:56.072Z,90.91
2018-02-13T03:58:56.083Z,90.44
2018-02-13T03:59:56.106Z,90.53
2018-02-13T04:00:56.133Z,90.91
2018-02-13T04:01:56.139Z,90.34
2018-02-13T04:02:56.159Z,90.06
2018-02-13T04:03:56.176Z,89.50
2018-02-13T04:04:56.195Z,90.06
2018-02-13T04:05:56.212Z,90.16
2018-02-13T04:06:56.238Z,90.44
2018-02-13T04:07:56.250Z,89.40
2018-02-13T04:08:56.268Z,89.69
2018-02-13T04:09:56.297Z,89.40
2018-02-13T04:10:56.307Z,89.69
2018-02-13T04:11:56.346Z,90.16
2018-02-13T04:12:56.348Z,90.16
2018-02-13T04:13:56.363Z,89.69
2018-02-13T04:14:56.397Z,89.78
2018-02-13T04:15:56.404Z,89.59
2018-02-13T04:16:56.435Z,89.59
2018-02-13T04:17:56.436Z,89.59
2018-02-13T04:18:56.469Z,89.59
2018-02-13T04:19:56.484Z,89.50
2018-02-13T04:20:56.504Z,89.50
2018-02-13T04:21:56.513Z,89.59
2018-02-13T04:22:56.530Z,89.02
2018-02-13T04:23:56.550Z,89.31
2018-02-13T04:24:56.571Z,89.69
2018-02-13T04:25:56.594Z,89.69
2018-02-13T04:26:56.605Z,90.25
2018-02-13T04:27:56.633Z,89.31
2018-02-13T04:28:56.647Z,89.69
2018-02-13T04:29:56.665Z,89.50
2018-02-13T04:30:56.681Z,90.16
2018-02-13T04:31:56.712Z,90.25
2018-02-13T04:32:56.715Z,89.87
2018-02-13T04:33:56.743Z,89.69
2018-02-13T04:34:56.756Z,90.06
2018-02-13T04:35:56.792Z,89.69
2018-02-13T04:36:56.793Z,89.21
2018-02-13T04:37:56.814Z,89.50
2018-02-13T04:38:56.830Z,89.69
2018-02-13T04:39:56.849Z,89.59
2018-02-13T04:40:56.867Z,89.69
2018-02-13T04:41:56.891Z,89.69
2018-02-13T04:42:56.905Z,89.12
2018-02-13T04:43:56.923Z,89.12
2018-02-13T04:44:56.962Z,89.12
2018-02-13T04:45:56.968Z,89.59
2018-02-13T04:46:56.979Z,89.50
2018-02-13T04:47:57.003Z,90.34
2018-02-13T04:48:57.019Z,90.63
2018-02-13T04:49:57.058Z,91.58
2018-02-13T04:50:57.063Z,91.91
2018-02-13T04:51:57.077Z,91.86
2018-02-13T04:52:57.090Z,92.19
2018-02-13T04:53:57.133Z,92.24
2018-02-13T04:54:57.129Z,92.85
2018-02-13T04:55:57.144Z,92.57
2018-02-13T04:56:57.178Z,92.57
2018-02-13T04:57:57.182Z,92.66
2018-02-13T04:58:57.212Z,92.85
2018-02-13T04:59:57.287Z,92.85
2018-02-13T05:00:57.241Z,93.09
2018-02-13T05:01:57.306Z,92.99
2018-02-13T05:02:57.401Z,92.94
2018-02-13T05:03:57.294Z,92.57
2018-02-13T05:04:58.196Z,93.13
2018-02-13T05:05:57.329Z,93.04
2018-02-13T05:06:57.356Z,92.90
2018-02-13T05:07:57.371Z,92.43
2018-02-13T05:08:57.394Z,92.90
2018-02-13T05:09:57.405Z,92.43
2018-02-13T05:10:57.423Z,92.57
2018-02-13T05:11:57.442Z,92.47
2018-02-13T05:12:57.463Z,92.94
2018-02-13T05:13:57.478Z,93.13
2018-02-13T05:14:57.498Z,93.23
2018-02-13T05:15:57.658Z,93.04
2018-02-13T05:16:57.528Z,92.85
2018-02-13T05:17:58.196Z,93.32
2018-02-13T05:18:57.573Z,93.32
2018-02-13T05:19:57.610Z,93.23
2018-02-13T05:20:57.631Z,93.42
2018-02-13T05:21:57.624Z,92.94
2018-02-13T05:22:57.640Z,92.94
2018-02-13T05:23:57.674Z,93.70
2018-02-13T05:24:57.690Z,93.13
2018-02-13T05:25:57.705Z,93.70
2018-02-13T05:26:57.716Z,93.04
2018-02-13T05:27:57.749Z,93.13
2018-02-13T05:28:57.773Z,93.13
2018-02-13T05:29:57.770Z,93.70
2018-02-13T05:30:57.837Z,93.42
2018-02-13T05:31:57.811Z,92.57
2018-02-13T05:32:57.824Z,92.80
2018-02-13T05:33:57.846Z,93.09
2018-02-13T05:34:57.861Z,93.18
2018-02-13T05:35:57.875Z,92.14
2018-02-13T05:36:57.895Z,91.39
2018-02-13T05:37:57.924Z,92.24
2018-02-13T05:38:57.948Z,91.67
2018-02-13T05:39:57.952Z,90.82
2018-02-13T05:40:57.974Z,91.39
2018-02-13T05:41:57.989Z,91.39
2018-02-13T05:42:58.011Z,91.01
2018-02-13T05:43:58.024Z,90.91
2018-02-13T05:44:58.040Z,90.72
2018-02-13T05:45:58.082Z,90.44
2018-02-13T05:46:58.088Z,90.82
2018-02-13T05:47:58.110Z,90.72
2018-02-13T05:48:58.112Z,90.72
2018-02-13T05:49:58.137Z,90.44
2018-02-13T05:50:58.182Z,90.44
2018-02-13T05:51:58.174Z,89.78
2018-02-13T05:52:58.193Z,90.44
2018-02-13T05:53:58.206Z,90.44
2018-02-13T05:54:58.223Z,89.97
2018-02-13T05:55:58.251Z,90.06
2018-02-13T05:56:58.271Z,89.59
2018-02-13T05:57:58.284Z,89.87
2018-02-13T05:58:58.300Z,89.69
2018-02-13T05:59:58.317Z,90.16
2018-02-13T06:00:58.349Z,89.40
2018-02-13T06:01:58.350Z,89.97
2018-02-13T06:02:58.370Z,89.78
2018-02-13T06:03:58.402Z,90.16
2018-02-13T06:04:58.408Z,89.59
2018-02-13T06:05:58.428Z,90.16
2018-02-13T06:06:58.494Z,89.87
2018-02-13T06:07:58.465Z,90.16
2018-02-13T06:08:58.481Z,90.16
2018-02-13T06:09:58.508Z,90.06
2018-02-13T06:10:58.524Z,90.16
2018-02-13T06:11:58.555Z,90.16
2018-02-13T06:12:58.593Z,89.97
2018-02-13T06:13:58.591Z,90.16
2018-02-13T06:14:58.611Z,89.59
2018-02-13T06:15:58.614Z,89.50
2018-02-13T06:16:58.635Z,89.02
2018-02-13T06:17:58.652Z,89.02
2018-02-13T06:18:58.680Z,88.93
2018-02-13T06:19:58.685Z,89.31
2018-02-13T06:20:58.712Z,89.02
2018-02-13T06:21:58.742Z,88.93
2018-02-13T06:22:58.744Z,88.36
2018-02-13T06:23:58.763Z,88.55
2018-02-13T06:24:58.827Z,88.74
2018-02-13T06:25:58.791Z,88.36
2018-02-13T06:26:58.812Z,89.40
2018-02-13T06:27:58.827Z,88.74
2018-02-13T06:28:58.862Z,89.78
2018-02-13T06:29:58.869Z,90.06
2018-02-13T06:30:58.899Z,90.20
2018-02-13T06:31:58.910Z,90.58
2018-02-13T06:32:58.924Z,90.58
2018-02-13T06:33:58.940Z,91.24
2018-02-13T06:34:58.960Z,91.15
2018-02-13T06:35:58.982Z,91.05
2018-02-13T06:36:59.011Z,91.43
2018-02-13T06:37:59.013Z,91.24
2018-02-13T06:38:59.037Z,91.34
2018-02-13T06:39:59.063Z,91.91
2018-02-13T06:40:59.066Z,91.72
2018-02-13T06:41:59.087Z,91.91
2018-02-13T06:42:59.105Z,92.00
2018-02-13T06:43:59.125Z,91.81
2018-02-13T06:44:59.140Z,91.72
2018-02-13T06:45:59.170Z,91.72
2018-02-13T06:46:59.177Z,91.62
2018-02-13T06:47:59.259Z,91.72
2018-02-13T06:48:59.280Z,91.62
2018-02-13T06:49:59.337Z,91.43
2018-02-13T06:50:59.253Z,91.24
2018-02-13T06:51:59.276Z,90.77
2018-02-13T06:52:59.288Z,91.24
2018-02-13T06:53:59.310Z,91.43
2018-02-13T06:54:59.332Z,90.82
2018-02-13T06:55:59.348Z,90.63
2018-02-13T06:56:59.357Z,90.25
2018-02-13T06:57:59.376Z,90.06
2018-02-13T06:58:59.410Z,89.69
2018-02-13T06:59:59.419Z,89.40
2018-02-13T07:00:59.443Z,89.69
2018-02-13T07:02:00.194Z,89.40
2018-02-13T07:02:59.473Z,89.02
2018-02-13T07:03:59.494Z,89.02
2018-02-13T07:04:59.511Z,89.21
2018-02-13T07:05:59.524Z,89.31
2018-02-13T07:06:59.544Z,88.36
2018-02-13T07:07:59.563Z,88.45
2018-02-13T07:08:59.592Z,88.74
2018-02-13T07:09:59.605Z,88.74
2018-02-13T07:10:59.614Z,89.21
2018-02-13T07:11:59.640Z,89.31
2018-02-13T07:12:59.662Z,89.31
2018-02-13T07:13:59.676Z,89.12
2018-02-13T07:14:59.697Z,89.12
2018-02-13T07:15:59.721Z,89.12
2018-02-13T07:16:59.727Z,88.93
2018-02-13T07:17:59.755Z,88.74
2018-02-13T07:18:59.761Z,88.93
2018-02-13T07:19:59.779Z,88.93
2018-02-13T07:20:59.815Z,89.31
2018-02-13T07:21:59.822Z,89.31
2018-02-13T07:22:59.853Z,89.50
2018-02-13T07:23:59.856Z,88.83
2018-02-13T07:24:59.893Z,88.55
2018-02-13T07:25:59.895Z,88.45
2018-02-13T07:26:59.970Z,88.93
2018-02-13T07:27:59.935Z,88.83
2018-02-13T07:28:59.969Z,89.21
2018-02-13T07:30:00.034Z,89.21
2018-02-13T07:30:59.982Z,89.21
2018-02-13T07:32:00.010Z,89.59
2018-02-13T07:33:00.020Z,89.59
2018-02-13T07:34:00.057Z,89.50
2018-02-13T07:35:00.082Z,89.02
2018-02-13T07:36:00.078Z,89.50
2018-02-13T07:37:00.092Z,89.50
2018-02-13T07:38:00.113Z,89.59
2018-02-13T07:39:00.152Z,89.59
2018-02-13T07:40:00.149Z,89.59
2018-02-13T07:41:00.183Z,89.02
2018-02-13T07:42:00.202Z,89.64
2018-02-13T07:43:00.203Z,90.06
2018-02-13T07:44:00.224Z,89.87
2018-02-13T07:45:00.244Z,90.16
2018-02-13T07:46:00.257Z,90.11
2018-02-13T07:47:00.287Z,90.11
2018-02-13T07:48:00.309Z,90.16
2018-02-13T07:49:00.322Z,90.44
2018-02-13T07:50:00.344Z,89.83
2018-02-13T07:51:00.357Z,89.78
2018-02-13T07:52:00.368Z,90.06
2018-02-13T07:53:00.388Z,90.25
2018-02-13T07:54:00.408Z,89.40
2018-02-13T07:55:00.429Z,89.64
2018-02-13T07:56:00.442Z,89.92
2018-02-13T07:57:00.460Z,90.39
2018-02-13T07:58:00.489Z,89.78
2018-02-13T07:59:00.497Z,90.16
2018-02-13T08:00:00.521Z,89.59
2018-02-13T08:01:00.536Z,89.78
2018-02-13T08:02:00.552Z,89.59
2018-02-13T08:03:00.571Z,89.40
2018-02-13T08:04:00.601Z,89.69
2018-02-13T08:05:00.607Z,89.40
2018-02-13T08:06:00.625Z,89.12
2018-02-13T08:07:00.648Z,89.59
2018-02-13T08:08:00.661Z,89.12
2018-02-13T08:09:00.699Z,88.93
2018-02-13T08:10:00.697Z,88.93
2018-02-13T08:11:00.719Z,88.45
2018-02-13T08:12:00.741Z,88.93
2018-02-13T08:13:00.758Z,89.02
2018-02-13T08:14:00.775Z,88.55
2018-02-13T08:15:00.843Z,88.55
2018-02-13T08:16:00.815Z,88.36
2018-02-13T08:17:00.830Z,88.45
2018-02-13T08:18:00.847Z,88.55
2018-02-13T08:19:00.921Z,88.45
2018-02-13T08:20:00.899Z,88.64
2018-02-13T08:21:00.900Z,88.64
2018-02-13T08:22:00.925Z,88.26
2018-02-13T08:23:00.942Z,88.26
2018-02-13T08:24:00.954Z,88.74
2018-02-13T08:25:00.974Z,87.88
2018-02-13T08:26:01.004Z,88.26
2018-02-13T08:27:01.019Z,87.51
2018-02-13T08:28:01.032Z,87.60
2018-02-13T08:29:01.049Z,87.60
2018-02-13T08:30:01.071Z,87.88
2018-02-13T08:31:01.089Z,87.70
2018-02-13T08:32:01.105Z,88.26
2018-02-13T08:33:01.133Z,87.98
2018-02-13T08:34:01.140Z,88.45
2018-02-13T08:35:01.159Z,88.26
2018-02-13T08:36:01.186Z,87.32
2018-02-13T08:37:01.195Z,87.60
2018-02-13T08:38:01.225Z,87.60
2018-02-13T08:39:01.233Z,87.41
2018-02-13T08:40:01.256Z,87.23
2018-02-13T08:41:01.275Z,87.60
2018-02-13T08:42:01.297Z,87.32
2018-02-13T08:43:01.315Z,86.75
2018-02-13T08:44:01.324Z,87.23
2018-02-13T08:45:01.351Z,87.41
2018-02-13T08:46:01.376Z,87.23
2018-02-13T08:47:01.383Z,87.32
2018-02-13T08:48:01.411Z,87.41
2018-02-13T08:49:01.425Z,87.32
2018-02-13T08:50:01.443Z,86.85
2018-02-13T08:51:01.464Z,87.41
2018-02-13T08:52:01.484Z,87.23
2018-02-13T08:53:01.497Z,86.94
2018-02-13T08:54:01.513Z,86.94
2018-02-13T08:55:01.538Z,87.23
2018-02-13T08:56:01.549Z,86.66
2018-02-13T08:57:01.569Z,86.94
2018-02-13T08:58:01.598Z,86.56
2018-02-13T08:59:01.614Z,86.56
2018-02-13T09:00:01.631Z,86.60
2018-02-13T09:01:01.696Z,86.32
2018-02-13T09:02:01.673Z,86.70
2018-02-13T09:03:01.691Z,86.51
2018-02-13T09:04:01.700Z,86.70
2018-02-13T09:05:01.725Z,86.41
2018-02-13T09:06:01.749Z,86.32
2018-02-13T09:07:01.762Z,86.60
2018-02-13T09:08:01.793Z,86.51
2018-02-13T09:09:01.831Z,86.22
2018-02-13T09:10:01.819Z,85.94
2018-02-13T09:11:01.834Z,85.66
2018-02-13T09:12:01.875Z,85.75
2018-02-13T09:13:01.869Z,85.19
2018-02-13T09:14:01.886Z,85.47
2018-02-13T09:15:01.905Z,85.94
2018-02-13T09:16:01.930Z,85.66
2018-02-13T09:17:01.947Z,85.85
2018-02-13T09:18:01.962Z,85.85
2018-02-13T09:19:01.983Z,85.57
2018-02-13T09:20:02.002Z,85.00
2018-02-13T09:21:02.033Z,85.00
2018-02-13T09:22:02.041Z,85.47
2018-02-13T09:23:02.058Z,84.90
2018-02-13T09:24:02.074Z,84.81
2018-02-13T09:25:02.105Z,84.61
2018-02-13T09:26:02.112Z,84.90
2018-02-13T09:27:02.144Z,84.71
2018-02-13T09:28:02.155Z,84.61
2018-02-13T09:29:02.172Z,84.90
2018-02-13T09:30:02.195Z,84.71
2018-02-13T09:31:02.208Z,84.90
2018-02-13T09:32:02.227Z,84.05
2018-02-13T09:33:02.252Z,83.95
2018-02-13T09:34:02.272Z,84.14
2018-02-13T09:35:02.300Z,83.95
2018-02-13T09:36:02.311Z,83.95
2018-02-13T09:37:02.319Z,84.23
2018-02-13T09:38:02.345Z,83.95
2018-02-13T09:39:02.354Z,83.95
2018-02-13T09:40:02.379Z,84.33
2018-02-13T09:41:02.396Z,84.19
2018-02-13T09:42:02.423Z,83.39
2018-02-13T09:43:02.431Z,83.81
2018-02-13T09:44:02.453Z,83.05
2018-02-13T09:45:02.484Z,82.76
2018-02-13T09:46:02.491Z,82.86
2018-02-13T09:47:02.519Z,82.86
2018-02-13T09:48:02.529Z,82.86
2018-02-13T09:49:02.562Z,83.52
2018-02-13T09:50:02.566Z,83.14
2018-02-13T09:51:02.596Z,83.05
2018-02-13T09:52:02.614Z,83.14
2018-02-13T09:53:02.628Z,83.62
2018-02-13T09:54:02.649Z,83.14
2018-02-13T09:55:02.743Z,83.24
2018-02-13T09:56:02.693Z,83.33
2018-02-13T09:57:02.708Z,83.62
2018-02-13T09:58:02.722Z,82.39
2018-02-13T09:59:02.763Z,82.48
2018-02-13T10:00:02.763Z,82.48
2018-02-13T10:01:02.774Z,82.67
2018-02-13T10:02:02.807Z,82.29
2018-02-13T10:03:02.817Z,82.20
2018-02-13T10:04:02.839Z,82.39
2018-02-13T10:05:02.862Z,81.63
2018-02-13T10:06:02.879Z,82.20
2018-02-13T10:07:02.919Z,82.48
2018-02-13T10:08:02.923Z,81.53
2018-02-13T10:09:02.938Z,82.10
2018-02-13T10:10:02.961Z,82.10
2018-02-13T10:11:02.977Z,81.34
2018-02-13T10:12:03.002Z,81.06
2018-02-13T10:13:03.029Z,81.10
2018-02-13T10:14:03.035Z,81.20
2018-02-13T10:15:03.054Z,81.10
2018-02-13T10:16:03.086Z,80.63
2018-02-13T10:17:03.101Z,80.72
2018-02-13T10:18:03.132Z,81.29
2018-02-13T10:19:03.160Z,80.82
2018-02-13T10:20:03.161Z,80.00
2018-02-13T10:21:03.170Z,78.49
2018-02-13T10:22:03.197Z,77.25
2018-02-13T10:23:03.209Z,77.58
2018-02-13T10:24:03.240Z,76.63
2018-02-13T10:25:03.276Z,75.96
2018-02-13T10:26:03.280Z,75.53
2018-02-13T10:27:03.299Z,73.72
2018-02-13T10:28:03.321Z,71.96
2018-02-13T10:29:03.337Z,70.42
2018-02-13T10:30:03.431Z,66.96
2018-02-13T10:31:03.383Z,66.24
2018-02-13T10:32:03.400Z,65.22
2018-02-13T10:33:03.423Z,64.53
2018-02-13T10:34:03.447Z,65.47
2018-02-13T10:35:03.494Z,65.13
2018-02-13T10:36:03.491Z,63.89
2018-02-13T10:37:03.513Z,63.67
2018-02-13T10:38:03.671Z,64.34
2018-02-13T10:39:03.565Z,63.99
2018-02-13T10:40:03.615Z,63.20
2018-02-13T10:41:03.638Z,61.58
2018-02-13T10:42:03.641Z,60.60
2018-02-13T10:43:03.676Z,60.82
2018-02-13T10:44:03.700Z,60.37
2018-02-13T10:45:03.725Z,59.42
2018-02-13T10:46:03.754Z,58.81
2018-02-13T10:47:03.778Z,59.17
2018-02-13T10:48:03.836Z,60.88
2018-02-13T10:49:03.839Z,60.44
2018-02-13T10:50:03.885Z,59.93
2018-02-13T10:51:03.896Z,60.97
2018-02-13T10:52:03.933Z,61.45
2018-02-13T10:53:03.965Z,61.32
2018-02-13T10:54:03.994Z,61.83
2018-02-13T10:55:04.016Z,61.16
2018-02-13T10:56:04.045Z,60.69
2018-02-13T10:57:04.077Z,60.66
2018-02-13T10:58:04.111Z,60.66
2018-02-13T10:59:04.151Z,60.97
2018-02-13T11:00:04.174Z,59.13
2018-02-13T11:01:04.205Z,57.26
2018-02-13T11:02:04.230Z,56.11
2018-02-13T11:03:04.269Z,55.44
2018-02-13T11:04:04.304Z,55.66
2018-02-13T11:05:04.337Z,54.39
2018-02-13T11:06:04.372Z,53.56
2018-02-13T11:07:04.390Z,52.71
2018-02-13T11:08:04.423Z,54.30
2018-02-13T11:09:04.457Z,53.88
2018-02-13T11:10:04.483Z,51.78
2018-02-13T11:11:04.509Z,51.50
2018-02-13T11:12:04.543Z,52.78
2018-02-13T11:13:04.572Z,55.10
2018-02-13T11:14:04.619Z,56.53
2018-02-13T11:15:04.636Z,56.82
2018-02-13T11:16:04.666Z,58.50
2018-02-13T11:17:04.699Z,58.79
2018-02-13T11:18:04.740Z,59.83
2018-02-13T11:19:04.773Z,59.93
2018-02-13T11:20:04.800Z,58.76
2018-02-13T11:21:04.839Z,59.55
2018-02-13T11:22:04.856Z,58.79
2018-02-13T11:23:04.883Z,58.25
2018-02-13T11:24:04.912Z,57.65
2018-02-13T11:25:04.942Z,57.84
2018-02-13T11:26:05.014Z,58.00
2018-02-13T11:27:05.002Z,58.50
2018-02-13T11:28:05.030Z,57.87
2018-02-13T11:29:05.068Z,56.75
2018-02-13T11:30:05.105Z,55.83
2018-02-13T11:31:05.132Z,54.68
2018-02-13T11:32:05.160Z,52.64
2018-02-13T11:33:05.176Z,51.88
2018-02-13T11:34:05.206Z,50.16
2018-02-13T11:35:05.238Z,50.97
2018-02-13T11:36:05.276Z,53.92
2018-02-13T11:37:05.307Z,54.18
2018-02-13T11:38:05.334Z,54.63
2018-02-13T11:39:05.354Z,54.25
2018-02-13T11:40:05.392Z,54.98
2018-02-13T11:41:05.426Z,56.03
2018-02-13T11:42:05.446Z,56.60
2018-02-13T11:43:05.482Z,55.93
2018-02-13T11:44:05.520Z,56.57
2018-02-13T11:45:05.537Z,57.59
2018-02-13T11:46:05.563Z,58.44
2018-02-13T11:47:05.582Z,59.39
2018-02-13T11:48:05.616Z,60.31
2018-02-13T11:49:05.636Z,60.25
2018-02-13T11:50:05.682Z,59.23
2018-02-13T11:51:05.698Z,58.18
2018-02-13T11:52:05.828Z,58.28
2018-02-13T11:53:05.750Z,58.18
2018-02-13T11:54:05.780Z,58.66
2018-02-13T11:55:05.814Z,56.70
2018-02-13T11:56:05.835Z,55.58
2018-02-13T11:57:05.867Z,54.35
2018-02-13T11:58:05.897Z,54.53
2018-02-13T11:59:05.938Z,55.20
2018-02-13T12:00:05.964Z,54.50
2018-02-13T12:01:05.976Z,54.82
2018-02-13T12:02:05.997Z,53.96
2018-02-13T12:03:06.038Z,53.52
2018-02-13T12:04:06.066Z,53.25
2018-02-13T12:05:06.092Z,52.56
2018-02-13T12:06:06.111Z,52.47
2018-02-13T12:07:06.147Z,52.37
2018-02-13T12:08:06.198Z,52.15
2018-02-13T12:09:06.211Z,52.15
2018-02-13T12:10:06.224Z,52.53
2018-02-13T12:11:06.257Z,53.32
2018-02-13T12:12:06.280Z,52.75
2018-02-13T12:13:06.307Z,51.42
2018-02-13T12:14:06.355Z,51.04
2018-02-13T12:15:06.361Z,51.25
2018-02-13T12:16:06.393Z,49.49
2018-02-13T12:17:06.425Z,48.23
2018-02-13T12:18:06.466Z,46.20
2018-02-13T12:19:06.482Z,45.46
2018-02-13T12:20:06.536Z,45.39
2018-02-13T12:21:06.542Z,47.18
2018-02-13T12:22:06.569Z,48.16
2018-02-13T12:23:06.614Z,47.32
2018-02-13T12:24:06.632Z,46.37
2018-02-13T12:25:06.663Z,46.34
2018-02-13T12:26:06.686Z,47.47
2018-02-13T12:27:06.731Z,47.56
2018-02-13T12:28:06.763Z,47.20
2018-02-13T12:29:06.790Z,46.73
2018-02-13T12:30:06.819Z,46.82
2018-02-13T12:31:06.843Z,48.49
2018-02-13T12:32:06.877Z,44.91
2018-02-13T12:33:06.898Z,43.04
2018-02-13T12:34:06.934Z,42.04
2018-02-13T12:35:06.959Z,42.97
2018-02-13T12:36:06.993Z,44.44
2018-02-13T12:37:07.021Z,46.47
2018-02-13T12:38:07.052Z,47.68
2018-02-13T12:39:07.083Z,48.44
2018-02-13T12:40:07.120Z,47.73
2018-02-13T12:41:07.146Z,50.63
2018-02-13T12:42:07.166Z,53.94
2018-02-13T12:43:07.195Z,55.74
2018-02-13T12:44:07.224Z,55.17
2018-02-13T12:45:07.264Z,55.71
2018-02-13T12:46:07.285Z,58.47
2018-02-13T12:47:07.306Z,57.04
2018-02-13T12:48:07.338Z,55.81
2018-02-13T12:49:07.362Z,55.90
2018-02-13T12:50:07.391Z,56.67
2018-02-13T12:51:07.423Z,56.07
2018-02-13T12:52:07.539Z,56.92
2018-02-13T12:53:07.479Z,56.92